createdAt,value
2019-04-26T00:00:42.178Z,1.20
2019-04-26T00:03:12.184Z,1.13
2019-04-26T00:05:41.503Z,1.50
2019-04-26T00:08:11.827Z,1.70
2019-04-26T00:11:02.657Z,1.90
2019-04-26T00:13:59.747Z,1.07
2019-04-26T00:16:46.724Z,1.03
2019-04-26T00:19:15.972Z,1.80
2019-04-26T00:21:45.335Z,1.80
2019-04-26T00:24:15.254Z,1.70
2019-04-26T00:26:44.574Z,1.00
2019-04-26T00:29:14.744Z,1.50
2019-04-26T00:31:43.991Z,1.50
2019-04-26T00:34:13.610Z,2.00
2019-04-26T00:36:42.872Z,1.10
2019-04-26T00:39:13.394Z,1.57
2019-04-26T00:41:42.889Z,1.80
2019-04-26T00:44:13.356Z,1.40
2019-04-26T00:46:45.310Z,1.90
2019-04-26T00:49:17.018Z,1.70
2019-04-26T00:51:47.318Z,1.97
2019-04-26T00:54:18.712Z,1.90
2019-04-26T00:56:48.225Z,1.30
2019-04-26T00:59:18.388Z,1.63
2019-04-26T01:01:51.721Z,1.87
2019-04-26T01:04:21.229Z,1.60
2019-04-26T01:06:52.317Z,1.73
2019-04-26T01:09:21.918Z,1.23
2019-04-26T01:11:51.156Z,1.70
2019-04-26T01:14:20.293Z,1.70
2019-04-26T01:16:49.476Z,1.50
2019-04-26T01:19:20.645Z,1.60
2019-04-26T01:21:53.300Z,2.10
2019-04-26T01:24:25.430Z,1.60
2019-04-26T01:26:56.527Z,1.75
2019-04-26T01:29:28.002Z,1.92
2019-04-26T01:32:06.308Z,1.42
2019-04-26T01:34:35.844Z,1.40
2019-04-26T01:37:05.347Z,1.57
2019-04-26T01:39:37.602Z,1.30
2019-04-26T01:42:24.318Z,1.30
2019-04-26T01:45:09.648Z,1.20
2019-04-26T01:47:39.935Z,0.80
2019-04-26T01:50:09.966Z,1.10
2019-04-26T01:52:39.223Z,1.20
2019-04-26T01:55:09.755Z,1.20
2019-04-26T01:57:40.838Z,1.17
2019-04-26T02:00:33.586Z,1.00
2019-04-26T02:03:12.905Z,0.93
2019-04-26T02:05:42.205Z,1.20
2019-04-26T02:08:11.532Z,1.10
2019-04-26T02:10:40.814Z,1.20
2019-04-26T02:13:10.119Z,1.12
2019-04-26T02:15:39.367Z,1.35
2019-04-26T02:18:08.513Z,1.10
2019-04-26T02:21:21.952Z,1.20
2019-04-26T02:24:13.820Z,1.40
2019-04-26T02:26:45.965Z,1.20
2019-04-26T02:29:19.168Z,1.10
2019-04-26T02:31:53.250Z,1.20
2019-04-26T02:34:22.765Z,1.30
2019-04-26T02:36:58.596Z,1.10
2019-04-26T02:39:29.775Z,1.00
2019-04-26T02:42:02.583Z,1.53
2019-04-26T02:44:52.974Z,1.10
2019-04-26T02:47:52.971Z,1.50
2019-04-26T02:50:51.622Z,1.50
2019-04-26T02:53:38.688Z,1.30
2019-04-26T02:56:32.194Z,1.40
2019-04-26T02:59:44.023Z,1.40
2019-04-26T03:02:23.502Z,1.37
2019-04-26T03:04:56.811Z,1.30
2019-04-26T03:07:40.224Z,1.40
2019-04-26T03:10:10.366Z,1.57
2019-04-26T03:12:43.216Z,1.20
2019-04-26T03:15:52.312Z,1.10
2019-04-26T03:18:47.955Z,1.40
2019-04-26T03:21:22.736Z,1.30
2019-04-26T03:23:59.609Z,1.23
2019-04-26T03:27:25.317Z,1.20
2019-04-26T03:30:20.141Z,1.10
2019-04-26T03:33:24.730Z,1.75
2019-04-26T03:36:18.627Z,1.32
2019-04-26T03:39:21.472Z,1.20
2019-04-26T03:42:27.701Z,1.20
2019-04-26T03:45:20.833Z,1.10
2019-04-26T03:48:04.793Z,1.20
2019-04-26T03:50:41.157Z,1.42
2019-04-26T03:53:41.904Z,1.42
2019-04-26T03:56:45.540Z,1.25
2019-04-26T04:00:00.918Z,1.45
2019-04-26T04:02:47.928Z,1.67
2019-04-26T04:05:35.996Z,1.50
2019-04-26T04:08:08.346Z,1.62
2019-04-26T04:10:47.659Z,1.67
2019-04-26T04:13:45.702Z,1.60
2019-04-26T04:16:33.434Z,1.33
2019-04-26T04:19:11.509Z,1.60
2019-04-26T04:21:51.941Z,1.60
2019-04-26T04:24:41.322Z,1.83
2019-04-26T04:27:41.371Z,1.70
2019-04-26T04:30:24.644Z,1.40
2019-04-26T04:33:22.903Z,1.65
2019-04-26T04:35:56.266Z,1.80
2019-04-26T04:38:34.852Z,2.10
2019-04-26T04:41:26.511Z,1.47
2019-04-26T04:44:05.371Z,2.00
2019-04-26T04:47:22.356Z,1.77
2019-04-26T04:49:50.471Z,1.87
2019-04-26T04:52:31.691Z,1.80
2019-04-26T04:55:09.670Z,1.53
2019-04-26T04:58:09.231Z,1.53
2019-04-26T05:01:11.399Z,1.77
2019-04-26T05:03:51.109Z,1.53
2019-04-26T05:06:47.014Z,1.60
2019-04-26T05:09:30.134Z,1.70
2019-04-26T05:12:11.644Z,2.25
2019-04-26T05:15:29.211Z,1.77
2019-04-26T05:18:57.607Z,1.60
2019-04-26T05:21:50.906Z,1.70
2019-04-26T05:24:34.106Z,1.60
2019-04-26T05:27:35.328Z,1.87
2019-04-26T05:30:52.486Z,1.98
2019-04-26T05:33:54.610Z,1.75
2019-04-26T05:36:51.423Z,1.90
2019-04-26T05:39:55.321Z,1.90
2019-04-26T05:43:19.366Z,2.00
2019-04-26T05:46:10.951Z,2.10
2019-04-26T05:49:12.608Z,1.60
2019-04-26T05:52:18.971Z,1.30
2019-04-26T05:55:32.965Z,1.70
2019-04-26T05:58:27.045Z,1.70
2019-04-26T06:01:53.320Z,1.60
2019-04-26T06:04:53.447Z,1.80
2019-04-26T06:07:50.829Z,1.70
2019-04-26T06:10:41.898Z,1.70
2019-04-26T06:14:12.863Z,1.60
2019-04-26T06:17:08.739Z,2.00
2019-04-26T06:19:59.381Z,1.85
2019-04-26T06:22:39.238Z,2.00
2019-04-26T06:25:35.162Z,1.95
2019-04-26T06:28:12.419Z,1.40
2019-04-26T06:30:52.987Z,1.50
2019-04-26T06:33:39.469Z,1.30
2019-04-26T06:36:16.430Z,1.40
2019-04-26T06:39:16.395Z,1.40
2019-04-26T06:42:31.728Z,1.40
2019-04-26T06:46:02.668Z,1.70
2019-04-26T06:49:05.574Z,1.75
2019-04-26T06:51:40.844Z,1.47
2019-04-26T06:54:21.627Z,1.17
2019-04-26T06:57:32.483Z,1.20
2019-04-26T07:00:10.697Z,1.10
2019-04-26T07:03:08.848Z,1.00
2019-04-26T07:05:41.037Z,0.98
2019-04-26T07:08:40.129Z,1.10
2019-04-26T07:12:28.318Z,0.90
2019-04-26T07:15:28.655Z,1.10
2019-04-26T07:18:10.786Z,1.30
2019-04-26T07:20:53.956Z,1.27
2019-04-26T07:24:13.340Z,1.30
2019-04-26T07:27:08.923Z,1.12
2019-04-26T07:30:15.500Z,1.60
2019-04-26T07:33:28.713Z,1.22
2019-04-26T07:36:48.005Z,1.13
2019-04-26T07:39:58.167Z,1.40
2019-04-26T07:43:01.737Z,1.27
2019-04-26T07:46:09.106Z,1.10
2019-04-26T07:49:20.542Z,1.22
2019-04-26T07:52:15.856Z,1.22
2019-04-26T07:55:29.589Z,1.25
2019-04-26T07:58:41.149Z,1.20
2019-04-26T08:01:28.925Z,1.30
2019-04-26T08:04:05.725Z,1.30
2019-04-26T08:06:48.648Z,1.32
2019-04-26T08:09:26.936Z,1.67
2019-04-26T08:11:52.532Z,1.77
2019-04-26T08:14:35.872Z,6.50
2019-04-26T08:17:41.479Z,1.23
2019-04-26T08:20:39.552Z,1.20
2019-04-26T08:23:36.029Z,1.17
2019-04-26T08:25:45.060Z,1.13
2019-04-26T08:28:17.451Z,1.17
2019-04-26T08:30:49.214Z,1.37
2019-04-26T08:33:24.840Z,1.30
2019-04-26T08:35:57.165Z,1.17
2019-04-26T08:38:27.825Z,1.50
2019-04-26T08:41:00.536Z,1.20
2019-04-26T08:43:49.917Z,1.30
2019-04-26T08:46:47.883Z,1.20
2019-04-26T08:49:23.970Z,1.17
2019-04-26T08:51:56.012Z,1.10
2019-04-26T08:54:32.536Z,1.30
2019-04-26T08:57:09.965Z,1.40
2019-04-26T08:59:44.217Z,1.23
2019-04-26T09:02:28.877Z,1.07
2019-04-26T09:05:34.292Z,1.00
2019-04-26T09:08:05.764Z,0.90
2019-04-26T09:10:39.275Z,1.20
2019-04-26T09:13:10.751Z,1.17
2019-04-26T09:16:03.277Z,1.03
2019-04-26T09:18:43.203Z,1.10
2019-04-26T09:21:03.947Z,1.30
2019-04-26T09:23:52.007Z,1.10
2019-04-26T09:26:46.952Z,1.10
2019-04-26T09:29:38.918Z,0.90
2019-04-26T09:32:24.168Z,1.00
2019-04-26T09:34:51.736Z,0.70
2019-04-26T09:37:21.305Z,0.70
2019-04-26T09:39:50.433Z,0.90
2019-04-26T09:42:26.771Z,0.60
2019-04-26T09:45:01.768Z,0.80
2019-04-26T09:47:42.261Z,0.60
2019-04-26T09:50:18.106Z,0.80
2019-04-26T09:52:49.606Z,1.07
2019-04-26T09:55:18.877Z,0.80
2019-04-26T09:57:48.115Z,0.80
2019-04-26T10:00:23.917Z,0.70
2019-04-26T10:02:54.712Z,0.60
2019-04-26T10:05:23.920Z,1.00
2019-04-26T10:07:53.094Z,0.83
2019-04-26T10:10:24.098Z,0.90
2019-04-26T10:13:10.626Z,0.93
2019-04-26T10:15:46.994Z,1.10
2019-04-26T10:18:20.479Z,1.30
2019-04-26T10:20:48.597Z,0.97
2019-04-26T10:23:17.771Z,0.97
2019-04-26T10:25:47.457Z,1.10
2019-04-26T10:28:17.906Z,1.33
2019-04-26T10:30:47.171Z,0.80
2019-04-26T10:33:16.375Z,1.37
2019-04-26T10:35:45.599Z,1.10
2019-04-26T10:38:14.830Z,0.90
2019-04-26T10:40:43.979Z,0.73
2019-04-26T10:43:13.864Z,0.83
2019-04-26T10:45:45.435Z,0.63
2019-04-26T10:48:15.496Z,0.80
2019-04-26T10:50:44.711Z,0.80
2019-04-26T10:53:32.000Z,0.90
2019-04-26T10:56:14.922Z,1.00
2019-04-26T10:58:52.466Z,0.70
2019-04-26T11:01:21.813Z,0.93
2019-04-26T11:03:51.051Z,0.80
2019-04-26T11:06:20.181Z,1.00
2019-04-26T11:08:49.332Z,0.80
2019-04-26T11:11:18.521Z,0.80
2019-04-26T11:13:47.763Z,0.63
2019-04-26T11:16:16.982Z,0.90
2019-04-26T11:18:46.184Z,0.97
2019-04-26T11:21:16.318Z,0.90
2019-04-26T11:23:47.001Z,0.97
2019-04-26T11:26:16.738Z,1.00
2019-04-26T11:28:45.923Z,0.73
2019-04-26T11:31:15.107Z,0.80
2019-04-26T11:33:45.188Z,1.00
2019-04-26T11:36:15.250Z,0.80
2019-04-26T11:38:44.641Z,0.70
2019-04-26T11:41:14.022Z,1.10
2019-04-26T11:43:43.222Z,0.90
2019-04-26T11:46:12.448Z,0.80
2019-04-26T11:48:41.599Z,0.90
2019-04-26T11:51:10.842Z,0.90
2019-04-26T11:53:40.479Z,0.90
2019-04-26T11:56:11.148Z,0.90
2019-04-26T11:58:40.350Z,0.70
2019-04-26T12:01:11.335Z,0.87
2019-04-26T12:03:42.744Z,0.60
2019-04-26T12:06:21.377Z,0.70
2019-04-26T12:08:54.852Z,0.70
2019-04-26T12:11:31.585Z,0.70
2019-04-26T12:13:58.873Z,0.77
2019-04-26T12:16:26.262Z,1.00
2019-04-26T12:18:55.560Z,0.77
2019-04-26T12:21:24.811Z,0.60
2019-04-26T12:23:55.614Z,0.77
2019-04-26T12:26:25.203Z,0.90
2019-04-26T12:28:54.383Z,0.80
2019-04-26T12:31:23.720Z,0.80
2019-04-26T12:33:52.972Z,0.50
2019-04-26T12:36:22.140Z,2.10
2019-04-26T12:38:51.385Z,4.27
2019-04-26T12:41:22.262Z,2.23
2019-04-26T12:43:54.461Z,0.90
2019-04-26T12:46:32.108Z,0.57
2019-04-26T12:49:01.292Z,0.75
2019-04-26T12:51:30.469Z,0.60
2019-04-26T12:53:59.616Z,0.80
2019-04-26T12:56:31.287Z,0.65
2019-04-26T12:58:59.842Z,0.62
2019-04-26T13:01:29.058Z,0.70
2019-04-26T13:04:05.498Z,0.60
2019-04-26T13:06:37.471Z,0.70
2019-04-26T13:09:13.606Z,0.80
2019-04-26T13:12:04.986Z,0.50
2019-04-26T13:14:51.885Z,0.60
2019-04-26T13:17:23.816Z,0.77
2019-04-26T13:19:53.854Z,0.60
2019-04-26T13:22:24.176Z,0.60
2019-04-26T13:24:53.494Z,0.60
2019-04-26T13:27:22.709Z,0.70
2019-04-26T13:30:01.666Z,0.80
2019-04-26T13:32:23.207Z,0.80
2019-04-26T13:34:52.374Z,0.90
2019-04-26T13:37:21.598Z,0.70
2019-04-26T13:39:51.226Z,0.65
2019-04-26T13:42:21.850Z,0.82
2019-04-26T13:45:06.672Z,0.70
2019-04-26T13:47:54.305Z,0.77
2019-04-26T13:50:30.813Z,0.80
2019-04-26T13:53:00.044Z,0.70
2019-04-26T13:55:30.445Z,1.32
2019-04-26T13:57:59.927Z,1.30
2019-04-26T14:00:31.799Z,1.10
2019-04-26T14:03:01.013Z,1.45
2019-04-26T14:05:30.196Z,0.80
2019-04-26T14:07:59.436Z,0.80
2019-04-26T14:10:28.626Z,0.80
2019-04-26T14:12:57.801Z,0.70
2019-04-26T14:15:26.988Z,0.80
2019-04-26T14:17:56.166Z,0.80
2019-04-26T14:20:26.711Z,0.80
2019-04-26T14:23:06.510Z,0.90
2019-04-26T14:25:49.685Z,1.05
2019-04-26T14:28:20.376Z,0.90
2019-04-26T14:30:50.086Z,0.80
2019-04-26T14:33:19.399Z,1.10
2019-04-26T14:35:50.694Z,0.90
2019-04-26T14:38:27.688Z,0.90
2019-04-26T14:41:03.354Z,1.12
2019-04-26T14:43:23.374Z,0.90
2019-04-26T14:45:56.140Z,0.90
2019-04-26T14:48:35.270Z,0.97
2019-04-26T14:51:07.207Z,0.80
2019-04-26T14:53:25.992Z,0.70
2019-04-26T14:55:55.686Z,0.70
2019-04-26T14:58:29.991Z,0.70
2019-04-26T15:00:58.819Z,0.80
2019-04-26T15:03:36.552Z,1.03
2019-04-26T15:06:22.233Z,0.90
2019-04-26T15:08:53.062Z,0.80
2019-04-26T15:11:22.945Z,0.80
2019-04-26T15:13:52.247Z,0.80
2019-04-26T15:16:22.741Z,0.60
2019-04-26T15:18:52.612Z,1.10
2019-04-26T15:21:22.815Z,0.90
2019-04-26T15:23:55.406Z,0.80
2019-04-26T15:26:29.555Z,1.20
2019-04-26T15:28:54.072Z,0.93
2019-04-26T15:31:24.981Z,1.00
2019-04-26T15:33:54.270Z,0.82
2019-04-26T15:36:23.638Z,0.90
2019-04-26T15:38:52.976Z,1.03
2019-04-26T15:41:36.819Z,1.00
2019-04-26T15:44:24.881Z,1.10
2019-04-26T15:47:13.644Z,0.90
2019-04-26T15:49:59.326Z,0.90
2019-04-26T15:52:30.103Z,0.80
2019-04-26T15:55:03.528Z,0.80
2019-04-26T15:57:32.492Z,1.20
2019-04-26T16:00:03.975Z,0.90
2019-04-26T16:02:32.933Z,1.00
2019-04-26T16:05:02.606Z,0.88
2019-04-26T16:07:34.244Z,1.10
2019-04-26T16:10:04.350Z,1.40
2019-04-26T16:12:33.633Z,1.10
2019-04-26T16:15:06.527Z,1.00
2019-04-26T16:17:36.221Z,1.10
2019-04-26T16:20:06.068Z,1.10
2019-04-26T16:22:35.407Z,0.80
2019-04-26T16:25:05.449Z,0.70
2019-04-26T16:27:34.912Z,1.02
2019-04-26T16:30:28.437Z,0.80
2019-04-26T16:33:13.491Z,0.75
2019-04-26T16:35:42.717Z,0.90
2019-04-26T16:38:29.613Z,1.00
2019-04-26T16:40:58.821Z,1.15
2019-04-26T16:43:39.624Z,1.00
2019-04-26T16:45:58.971Z,0.90
2019-04-26T16:48:28.269Z,0.80
2019-04-26T16:51:01.181Z,0.90
2019-04-26T16:53:43.701Z,0.97
2019-04-26T16:55:59.523Z,1.00
2019-04-26T16:58:30.905Z,0.90
2019-04-26T17:01:04.702Z,1.20
2019-04-26T17:03:32.754Z,1.07
2019-04-26T17:06:09.095Z,1.00
2019-04-26T17:08:33.153Z,0.80
2019-04-26T17:11:02.382Z,1.10
2019-04-26T17:13:34.714Z,0.90
2019-04-26T17:16:02.529Z,0.95
2019-04-26T17:18:32.368Z,0.90
2019-04-26T17:21:02.589Z,0.83
2019-04-26T17:23:49.454Z,1.00
2019-04-26T17:26:29.221Z,0.90
2019-04-26T17:28:59.571Z,1.03
2019-04-26T17:31:28.855Z,1.20
2019-04-26T17:33:58.062Z,2.02
2019-04-26T17:36:27.292Z,1.90
2019-04-26T17:38:56.823Z,1.20
2019-04-26T17:41:26.066Z,1.10
2019-04-26T17:44:06.226Z,1.35
2019-04-26T17:46:26.210Z,1.60
2019-04-26T17:48:55.692Z,1.35
2019-04-26T17:51:24.843Z,1.50
2019-04-26T17:54:20.494Z,1.90
2019-04-26T17:56:25.968Z,1.40
2019-04-26T17:58:56.306Z,1.45
2019-04-26T18:01:41.923Z,1.67
2019-04-26T18:03:56.603Z,1.30
2019-04-26T18:06:29.845Z,1.27
2019-04-26T18:08:56.863Z,1.25
2019-04-26T18:11:26.180Z,1.90
2019-04-26T18:13:55.354Z,1.50
2019-04-26T18:16:29.193Z,1.40
2019-04-26T18:19:08.580Z,1.62
2019-04-26T18:22:05.780Z,2.90
2019-04-26T18:24:35.230Z,3.13
2019-04-26T18:27:04.573Z,2.50
2019-04-26T18:29:33.807Z,2.47
2019-04-26T18:32:03.604Z,2.70
2019-04-26T18:34:37.218Z,2.25
2019-04-26T18:37:07.426Z,1.62
2019-04-26T18:39:36.408Z,1.82
2019-04-26T18:42:06.116Z,1.50
2019-04-26T18:44:38.572Z,1.77
2019-04-26T18:47:20.598Z,1.50
2019-04-26T18:49:46.307Z,1.80
2019-04-26T18:52:19.355Z,2.20
2019-04-26T18:54:51.652Z,1.85
2019-04-26T18:57:21.632Z,1.75
2019-04-26T18:59:52.677Z,1.77
2019-04-26T19:02:23.697Z,1.72
2019-04-26T19:04:53.074Z,1.95
2019-04-26T19:07:31.804Z,1.75
2019-04-26T19:09:59.297Z,1.50
2019-04-26T19:12:26.957Z,1.50
2019-04-26T19:15:17.175Z,1.75
2019-04-26T19:17:53.971Z,1.45
2019-04-26T19:20:32.231Z,1.85
2019-04-26T19:23:03.181Z,2.15
2019-04-26T19:25:35.663Z,2.00
2019-04-26T19:28:07.808Z,2.17
2019-04-26T19:30:34.955Z,2.40
2019-04-26T19:33:04.390Z,2.30
2019-04-26T19:35:33.542Z,1.87
2019-04-26T19:38:03.249Z,2.10
2019-04-26T19:40:32.556Z,2.10
2019-04-26T19:43:07.522Z,2.80
2019-04-26T19:45:46.228Z,1.87
2019-04-26T19:48:35.965Z,2.20
2019-04-26T19:51:27.082Z,2.50
2019-04-26T19:54:02.101Z,2.77
2019-04-26T19:56:34.874Z,2.62
2019-04-26T19:59:04.098Z,2.37
2019-04-26T20:01:33.476Z,2.80
2019-04-26T20:04:02.733Z,2.30
2019-04-26T20:06:32.206Z,2.20
2019-04-26T20:09:03.596Z,2.85
2019-04-26T20:11:32.845Z,2.62
2019-04-26T20:14:03.419Z,2.30
2019-04-26T20:16:36.489Z,3.17
2019-04-26T20:19:04.364Z,2.58
2019-04-26T20:21:34.234Z,3.37
2019-04-26T20:24:03.584Z,2.50
2019-04-26T20:26:32.839Z,2.97
2019-04-26T20:29:02.120Z,2.20
2019-04-26T20:31:44.948Z,2.60
2019-04-26T20:34:10.948Z,2.00
2019-04-26T20:36:44.151Z,2.05
2019-04-26T20:39:12.544Z,2.10
2019-04-26T20:41:41.807Z,1.70
2019-04-26T20:44:12.724Z,1.67
2019-04-26T20:46:42.683Z,1.70
2019-04-26T20:49:11.848Z,1.80
2019-04-26T20:51:46.074Z,2.62
2019-04-26T20:54:16.324Z,1.98
2019-04-26T20:56:46.109Z,1.50
2019-04-26T20:59:16.793Z,1.30
2019-04-26T21:01:46.679Z,1.30
2019-04-26T21:04:33.819Z,1.30
2019-04-26T21:06:46.966Z,1.63
2019-04-26T21:09:16.201Z,1.30
2019-04-26T21:11:45.434Z,1.42
2019-04-26T21:14:14.629Z,1.90
2019-04-26T21:16:49.446Z,1.95
2019-04-26T21:19:19.004Z,1.75
2019-04-26T21:21:48.498Z,1.60
2019-04-26T21:24:19.732Z,1.60
2019-04-26T21:27:13.701Z,2.00
2019-04-26T21:30:01.235Z,1.98
2019-04-26T21:32:51.510Z,1.90
2019-04-26T21:35:24.985Z,1.80
2019-04-26T21:38:00.781Z,1.90
2019-04-26T21:40:40.673Z,1.85
2019-04-26T21:43:09.904Z,1.85
2019-04-26T21:45:39.169Z,2.45
2019-04-26T21:48:08.563Z,1.90
2019-04-26T21:50:39.090Z,2.07
2019-04-26T21:53:08.375Z,2.58
2019-04-26T21:55:38.792Z,2.10
2019-04-26T21:58:08.169Z,2.02
2019-04-26T22:00:54.919Z,1.87
2019-04-26T22:03:24.510Z,2.02
2019-04-26T22:05:54.146Z,1.92
2019-04-26T22:08:27.165Z,1.82
2019-04-26T22:10:56.446Z,2.22
2019-04-26T22:13:33.279Z,2.50
2019-04-26T22:16:31.895Z,2.55
2019-04-26T22:19:08.788Z,2.50
2019-04-26T22:21:52.768Z,3.00
2019-04-26T22:24:26.645Z,3.80
2019-04-26T22:26:55.935Z,2.22
2019-04-26T22:29:25.168Z,1.60
2019-04-26T22:31:54.829Z,1.73
2019-04-26T22:34:24.321Z,1.52
2019-04-26T22:36:53.860Z,1.42
2019-04-26T22:39:24.526Z,1.40
2019-04-26T22:41:54.130Z,1.30
2019-04-26T22:44:48.288Z,1.70
2019-04-26T22:47:24.112Z,1.40
2019-04-26T22:49:53.391Z,1.50
2019-04-26T22:52:23.076Z,1.40
2019-04-26T22:54:53.898Z,1.75
2019-04-26T22:57:23.355Z,1.62
2019-04-26T22:59:53.531Z,1.60
2019-04-26T23:02:27.489Z,1.80
2019-04-26T23:04:56.009Z,1.70
2019-04-26T23:07:26.285Z,1.70
2019-04-26T23:09:55.823Z,1.87
2019-04-26T23:12:50.171Z,1.57
2019-04-26T23:15:34.952Z,1.80
2019-04-26T23:18:29.279Z,1.92
2019-04-26T23:21:03.441Z,2.17
2019-04-26T23:23:32.859Z,2.37
2019-04-26T23:26:05.950Z,2.02
2019-04-26T23:28:36.893Z,2.00
2019-04-26T23:31:07.816Z,1.98
2019-04-26T23:33:35.654Z,2.15
2019-04-26T23:36:05.014Z,1.93
2019-04-26T23:38:37.332Z,2.12
2019-04-26T23:41:07.366Z,1.90
2019-04-26T23:43:36.604Z,2.10
2019-04-26T23:46:05.732Z,2.65
2019-04-26T23:48:34.929Z,2.10
2019-04-26T23:51:08.116Z,1.92
2019-04-26T23:53:35.947Z,1.92
2019-04-26T23:56:05.223Z,2.00
2019-04-26T23:58:34.543Z,1.98
